Terminal Aerodrome Forecast
Issued by NWS

Home | Current Version | Previous Version | Text Only | Print | Product List | Glossary On
Versions: 1 2 3 4 5 6 7 8 9 10 11 12
195
FTUS45 KTFX 221737
TAFGTF
TAF
KGTF 221737Z 2218/2318 09008KT P6SM SCT080
     FM230200 05006KT P6SM VCSH BKN090
     FM230500 03008KT 5SM -SN BR SCT010 BKN050
     FM230800 VRB05KT 3SM -SN BR BKN020
     FM231000 VRB05KT 1SM -SN BR SCT008 BKN015=

USA.gov is the U.S. government's official web portal to all federal, state and local government web resources and services.